sensor_id;sensor_type;location;lat;lon;timestamp;temperature;humidity
76897;SHT30;65856;52.178;21.176;2024-02-14T00:01:33;6.83;73.81
76897;SHT30;65856;52.178;21.176;2024-02-14T00:04:02;6.81;73.95
76897;SHT30;65856;52.178;21.176;2024-02-14T00:06:28;6.80;74.01
76897;SHT30;65856;52.178;21.176;2024-02-14T00:08:54;6.80;74.07
76897;SHT30;65856;52.178;21.176;2024-02-14T00:11:19;6.80;74.09
76897;SHT30;65856;52.178;21.176;2024-02-14T00:13:44;6.80;74.09
76897;SHT30;65856;52.178;21.176;2024-02-14T00:16:10;6.78;74.08
76897;SHT30;65856;52.178;21.176;2024-02-14T00:18:35;6.78;74.15
76897;SHT30;65856;52.178;21.176;2024-02-14T00:21:01;6.77;74.20
76897;SHT30;65856;52.178;21.176;2024-02-14T00:23:26;6.74;74.19
76897;SHT30;65856;52.178;21.176;2024-02-14T00:25:52;6.74;74.28
76897;SHT30;65856;52.178;21.176;2024-02-14T00:28:17;6.74;74.27
76897;SHT30;65856;52.178;21.176;2024-02-14T00:30:42;6.74;74.08
76897;SHT30;65856;52.178;21.176;2024-02-14T00:33:08;6.75;74.04
76897;SHT30;65856;52.178;21.176;2024-02-14T00:35:33;6.76;74.11
76897;SHT30;65856;52.178;21.176;2024-02-14T00:37:58;6.76;74.27
76897;SHT30;65856;52.178;21.176;2024-02-14T00:40:24;6.72;74.30
76897;SHT30;65856;52.178;21.176;2024-02-14T00:42:49;6.71;74.30
76897;SHT30;65856;52.178;21.176;2024-02-14T00:45:15;6.71;74.28
76897;SHT30;65856;52.178;21.176;2024-02-14T00:47:40;6.70;74.16
76897;SHT30;65856;52.178;21.176;2024-02-14T00:50:06;6.71;74.15
76897;SHT30;65856;52.178;21.176;2024-02-14T00:52:32;6.73;74.10
76897;SHT30;65856;52.178;21.176;2024-02-14T00:54:57;6.71;74.04
76897;SHT30;65856;52.178;21.176;2024-02-14T00:57:23;6.72;74.16
76897;SHT30;65856;52.178;21.176;2024-02-14T00:59:51;6.71;74.10
76897;SHT30;65856;52.178;21.176;2024-02-14T01:02:17;6.70;74.18
76897;SHT30;65856;52.178;21.176;2024-02-14T01:04:43;6.69;74.17
76897;SHT30;65856;52.178;21.176;2024-02-14T01:07:09;6.69;74.06
76897;SHT30;65856;52.178;21.176;2024-02-14T01:09:34;6.68;74.10
76897;SHT30;65856;52.178;21.176;2024-02-14T01:12:01;6.68;74.16
76897;SHT30;65856;52.178;21.176;2024-02-14T01:14:27;6.68;74.29
76897;SHT30;65856;52.178;21.176;2024-02-14T01:16:53;6.66;74.22
76897;SHT30;65856;52.178;21.176;2024-02-14T01:19:19;6.64;74.23
76897;SHT30;65856;52.178;21.176;2024-02-14T01:21:45;6.59;74.33
76897;SHT30;65856;52.178;21.176;2024-02-14T01:24:13;6.56;74.35
76897;SHT30;65856;52.178;21.176;2024-02-14T01:26:40;6.54;74.18
76897;SHT30;65856;52.178;21.176;2024-02-14T01:29:05;6.50;73.92
76897;SHT30;65856;52.178;21.176;2024-02-14T01:31:32;6.48;74.01
76897;SHT30;65856;52.178;21.176;2024-02-14T01:33:59;6.45;74.10
76897;SHT30;65856;52.178;21.176;2024-02-14T01:36:26;6.42;74.41
76897;SHT30;65856;52.178;21.176;2024-02-14T01:38:53;6.40;74.36
76897;SHT30;65856;52.178;21.176;2024-02-14T01:41:19;6.36;74.44
76897;SHT30;65856;52.178;21.176;2024-02-14T01:43:46;6.35;74.60
76897;SHT30;65856;52.178;21.176;2024-02-14T01:46:12;6.32;74.64
76897;SHT30;65856;52.178;21.176;2024-02-14T01:48:38;6.30;74.59
76897;SHT30;65856;52.178;21.176;2024-02-14T01:51:05;6.26;74.60
76897;SHT30;65856;52.178;21.176;2024-02-14T01:53:33;6.22;74.49
76897;SHT30;65856;52.178;21.176;2024-02-14T01:56:02;6.15;74.48
76897;SHT30;65856;52.178;21.176;2024-02-14T01:58:29;6.09;74.49
76897;SHT30;65856;52.178;21.176;2024-02-14T02:00:55;6.03;74.47
76897;SHT30;65856;52.178;21.176;2024-02-14T02:03:23;5.97;74.58
76897;SHT30;65856;52.178;21.176;2024-02-14T02:05:50;5.92;74.61
76897;SHT30;65856;52.178;21.176;2024-02-14T02:08:18;5.88;74.76
76897;SHT30;65856;52.178;21.176;2024-02-14T02:10:44;5.83;74.95
76897;SHT30;65856;52.178;21.176;2024-02-14T02:13:10;5.80;74.97
76897;SHT30;65856;52.178;21.176;2024-02-14T02:15:35;5.76;74.90
76897;SHT30;65856;52.178;21.176;2024-02-14T02:18:02;5.72;74.96
76897;SHT30;65856;52.178;21.176;2024-02-14T02:20:31;5.68;75.25
76897;SHT30;65856;52.178;21.176;2024-02-14T02:22:57;5.65;75.44
76897;SHT30;65856;52.178;21.176;2024-02-14T02:25:23;5.62;75.48
76897;SHT30;65856;52.178;21.176;2024-02-14T02:27:54;5.58;75.49
76897;SHT30;65856;52.178;21.176;2024-02-14T02:30:22;5.53;75.41
76897;SHT30;65856;52.178;21.176;2024-02-14T02:32:49;5.48;75.40
76897;SHT30;65856;52.178;21.176;2024-02-14T02:35:16;5.44;75.48
76897;SHT30;65856;52.178;21.176;2024-02-14T02:37:45;5.38;75.64
76897;SHT30;65856;52.178;21.176;2024-02-14T02:40:13;5.31;75.63
76897;SHT30;65856;52.178;21.176;2024-02-14T02:42:39;5.25;75.60
76897;SHT30;65856;52.178;21.176;2024-02-14T02:45:05;5.22;75.59
76897;SHT30;65856;52.178;21.176;2024-02-14T02:47:31;5.18;75.53
76897;SHT30;65856;52.178;21.176;2024-02-14T02:49:57;5.15;75.50
76897;SHT30;65856;52.178;21.176;2024-02-14T02:52:24;5.09;75.49
76897;SHT30;65856;52.178;21.176;2024-02-14T02:54:50;5.04;75.71
76897;SHT30;65856;52.178;21.176;2024-02-14T02:57:15;5.00;75.96
76897;SHT30;65856;52.178;21.176;2024-02-14T02:59:41;4.95;76.00
76897;SHT30;65856;52.178;21.176;2024-02-14T03:02:08;4.91;75.92
76897;SHT30;65856;52.178;21.176;2024-02-14T03:04:35;4.85;75.75
76897;SHT30;65856;52.178;21.176;2024-02-14T03:07:00;4.80;75.61
76897;SHT30;65856;52.178;21.176;2024-02-14T03:09:31;4.75;75.44
76897;SHT30;65856;52.178;21.176;2024-02-14T03:11:57;4.71;75.57
76897;SHT30;65856;52.178;21.176;2024-02-14T03:14:23;4.66;75.57
76897;SHT30;65856;52.178;21.176;2024-02-14T03:16:48;4.63;75.81
76897;SHT30;65856;52.178;21.176;2024-02-14T03:19:14;4.59;76.08
76897;SHT30;65856;52.178;21.176;2024-02-14T03:21:39;4.55;76.30
76897;SHT30;65856;52.178;21.176;2024-02-14T03:24:05;4.55;76.49
76897;SHT30;65856;52.178;21.176;2024-02-14T03:26:31;4.51;76.59
76897;SHT30;65856;52.178;21.176;2024-02-14T03:29:00;4.46;76.71
76897;SHT30;65856;52.178;21.176;2024-02-14T03:31:27;4.45;76.70
76897;SHT30;65856;52.178;21.176;2024-02-14T03:33:52;4.45;76.71
76897;SHT30;65856;52.178;21.176;2024-02-14T03:36:19;4.45;76.73
76897;SHT30;65856;52.178;21.176;2024-02-14T03:38:44;4.45;76.80
76897;SHT30;65856;52.178;21.176;2024-02-14T03:41:11;4.45;76.94
76897;SHT30;65856;52.178;21.176;2024-02-14T03:43:38;4.45;77.13
76897;SHT30;65856;52.178;21.176;2024-02-14T03:46:03;4.45;77.34
76897;SHT30;65856;52.178;21.176;2024-02-14T03:48:30;4.45;77.51
76897;SHT30;65856;52.178;21.176;2024-02-14T03:50:56;4.46;77.59
76897;SHT30;65856;52.178;21.176;2024-02-14T03:53:22;4.47;77.60
76897;SHT30;65856;52.178;21.176;2024-02-14T03:55:48;4.47;77.68
76897;SHT30;65856;52.178;21.176;2024-02-14T03:58:14;4.46;77.84
76897;SHT30;65856;52.178;21.176;2024-02-14T04:00:43;4.47;77.94
76897;SHT30;65856;52.178;21.176;2024-02-14T04:03:12;4.49;77.97
76897;SHT30;65856;52.178;21.176;2024-02-14T04:05:38;4.46;78.06
76897;SHT30;65856;52.178;21.176;2024-02-14T04:08:04;4.47;78.18
76897;SHT30;65856;52.178;21.176;2024-02-14T04:10:33;4.49;78.23
76897;SHT30;65856;52.178;21.176;2024-02-14T04:12:59;4.50;78.24
76897;SHT30;65856;52.178;21.176;2024-02-14T04:15:24;4.50;78.26
76897;SHT30;65856;52.178;21.176;2024-02-14T04:17:49;4.53;78.35
76897;SHT30;65856;52.178;21.176;2024-02-14T04:20:15;4.56;78.47
76897;SHT30;65856;52.178;21.176;2024-02-14T04:22:40;4.57;78.65
76897;SHT30;65856;52.178;21.176;2024-02-14T04:25:08;4.58;78.76
76897;SHT30;65856;52.178;21.176;2024-02-14T04:27:33;4.59;78.79
76897;SHT30;65856;52.178;21.176;2024-02-14T04:30:00;4.60;78.84
76897;SHT30;65856;52.178;21.176;2024-02-14T04:32:26;4.61;78.94
76897;SHT30;65856;52.178;21.176;2024-02-14T04:34:52;4.62;79.04
76897;SHT30;65856;52.178;21.176;2024-02-14T04:37:18;4.62;79.04
76897;SHT30;65856;52.178;21.176;2024-02-14T04:39:44;4.63;78.90
76897;SHT30;65856;52.178;21.176;2024-02-14T04:42:09;4.64;78.82
76897;SHT30;65856;52.178;21.176;2024-02-14T04:44:34;4.63;78.92
76897;SHT30;65856;52.178;21.176;2024-02-14T04:47:00;4.64;79.01
76897;SHT30;65856;52.178;21.176;2024-02-14T04:49:26;4.67;79.07
76897;SHT30;65856;52.178;21.176;2024-02-14T04:51:54;4.68;79.01
76897;SHT30;65856;52.178;21.176;2024-02-14T04:54:20;4.65;79.00
76897;SHT30;65856;52.178;21.176;2024-02-14T04:56:45;4.65;78.88
76897;SHT30;65856;52.178;21.176;2024-02-14T04:59:11;4.64;78.83
76897;SHT30;65856;52.178;21.176;2024-02-14T05:01:37;4.64;78.93
76897;SHT30;65856;52.178;21.176;2024-02-14T05:04:04;4.63;79.10
76897;SHT30;65856;52.178;21.176;2024-02-14T05:06:30;4.63;79.17
76897;SHT30;65856;52.178;21.176;2024-02-14T05:08:55;4.64;79.18
76897;SHT30;65856;52.178;21.176;2024-02-14T05:11:21;4.61;79.10
76897;SHT30;65856;52.178;21.176;2024-02-14T05:13:46;4.57;79.13
76897;SHT30;65856;52.178;21.176;2024-02-14T05:16:12;4.55;78.99
76897;SHT30;65856;52.178;21.176;2024-02-14T05:18:38;4.52;78.84
76897;SHT30;65856;52.178;21.176;2024-02-14T05:21:06;4.51;78.66
76897;SHT30;65856;52.178;21.176;2024-02-14T05:23:33;4.44;78.35
76897;SHT30;65856;52.178;21.176;2024-02-14T05:26:00;4.40;78.01
76897;SHT30;65856;52.178;21.176;2024-02-14T05:28:27;4.35;77.70
76897;SHT30;65856;52.178;21.176;2024-02-14T05:30:54;4.29;77.56
76897;SHT30;65856;52.178;21.176;2024-02-14T05:33:20;4.22;77.50
76897;SHT30;65856;52.178;21.176;2024-02-14T05:35:50;4.15;77.66
76897;SHT30;65856;52.178;21.176;2024-02-14T05:38:17;4.10;77.90
76897;SHT30;65856;52.178;21.176;2024-02-14T05:40:44;4.06;78.03
76897;SHT30;65856;52.178;21.176;2024-02-14T05:43:11;4.03;78.04
76897;SHT30;65856;52.178;21.176;2024-02-14T05:45:37;3.97;77.74
76897;SHT30;65856;52.178;21.176;2024-02-14T05:48:03;3.90;77.62
76897;SHT30;65856;52.178;21.176;2024-02-14T05:50:28;3.87;77.72
76897;SHT30;65856;52.178;21.176;2024-02-14T05:52:54;3.81;77.86
76897;SHT30;65856;52.178;21.176;2024-02-14T05:55:22;3.80;77.91
76897;SHT30;65856;52.178;21.176;2024-02-14T05:57:47;3.76;77.61
76897;SHT30;65856;52.178;21.176;2024-02-14T06:00:13;3.72;77.57
76897;SHT30;65856;52.178;21.176;2024-02-14T06:02:39;3.67;77.77
76897;SHT30;65856;52.178;21.176;2024-02-14T06:05:05;3.65;77.73
76897;SHT30;65856;52.178;21.176;2024-02-14T06:07:36;3.60;77.70
76897;SHT30;65856;52.178;21.176;2024-02-14T06:10:02;3.65;78.15
76897;SHT30;65856;52.178;21.176;2024-02-14T06:12:28;3.69;77.96
76897;SHT30;65856;52.178;21.176;2024-02-14T06:14:54;3.69;78.00
76897;SHT30;65856;52.178;21.176;2024-02-14T06:17:20;3.68;78.01
76897;SHT30;65856;52.178;21.176;2024-02-14T06:19:45;3.71;78.09
76897;SHT30;65856;52.178;21.176;2024-02-14T06:22:11;3.74;78.12
76897;SHT30;65856;52.178;21.176;2024-02-14T06:24:36;3.77;78.09
76897;SHT30;65856;52.178;21.176;2024-02-14T06:27:02;3.82;78.02
76897;SHT30;65856;52.178;21.176;2024-02-14T06:29:27;3.90;78.02
76897;SHT30;65856;52.178;21.176;2024-02-14T06:31:53;4.17;77.82
76897;SHT30;65856;52.178;21.176;2024-02-14T06:34:19;4.74;77.03
76897;SHT30;65856;52.178;21.176;2024-02-14T06:36:46;5.35;76.14
76897;SHT30;65856;52.178;21.176;2024-02-14T06:39:12;5.89;75.19
76897;SHT30;65856;52.178;21.176;2024-02-14T06:41:37;6.18;74.58
76897;SHT30;65856;52.178;21.176;2024-02-14T06:44:03;6.36;74.16
76897;SHT30;65856;52.178;21.176;2024-02-14T06:46:30;6.42;73.66
76897;SHT30;65856;52.178;21.176;2024-02-14T06:48:55;6.36;73.56
76897;SHT30;65856;52.178;21.176;2024-02-14T06:51:21;6.36;73.51
76897;SHT30;65856;52.178;21.176;2024-02-14T06:53:49;6.42;73.41
76897;SHT30;65856;52.178;21.176;2024-02-14T06:56:14;6.38;73.36
76897;SHT30;65856;52.178;21.176;2024-02-14T06:58:40;6.38;73.13
76897;SHT30;65856;52.178;21.176;2024-02-14T07:01:05;6.45;72.97
76897;SHT30;65856;52.178;21.176;2024-02-14T07:03:31;6.59;72.82
76897;SHT30;65856;52.178;21.176;2024-02-14T07:05:56;6.75;72.57
76897;SHT30;65856;52.178;21.176;2024-02-14T07:08:22;6.93;72.29
76897;SHT30;65856;52.178;21.176;2024-02-14T07:10:50;7.06;72.11
76897;SHT30;65856;52.178;21.176;2024-02-14T07:13:16;7.21;71.80
76897;SHT30;65856;52.178;21.176;2024-02-14T07:15:41;7.32;71.68
76897;SHT30;65856;52.178;21.176;2024-02-14T07:18:07;7.51;71.49
76897;SHT30;65856;52.178;21.176;2024-02-14T07:20:34;7.62;71.53
76897;SHT30;65856;52.178;21.176;2024-02-14T07:23:01;7.73;71.60
76897;SHT30;65856;52.178;21.176;2024-02-14T07:25:26;7.90;71.61
76897;SHT30;65856;52.178;21.176;2024-02-14T07:27:52;8.13;71.54
76897;SHT30;65856;52.178;21.176;2024-02-14T07:30:17;8.40;71.26
76897;SHT30;65856;52.178;21.176;2024-02-14T07:32:44;8.61;70.91
76897;SHT30;65856;52.178;21.176;2024-02-14T07:35:09;8.80;70.38
76897;SHT30;65856;52.178;21.176;2024-02-14T07:37:36;8.98;70.03
76897;SHT30;65856;52.178;21.176;2024-02-14T07:40:02;9.21;69.71
76897;SHT30;65856;52.178;21.176;2024-02-14T07:42:28;9.44;69.16
76897;SHT30;65856;52.178;21.176;2024-02-14T07:44:53;9.63;68.68
76897;SHT30;65856;52.178;21.176;2024-02-14T07:47:21;9.79;68.13
76897;SHT30;65856;52.178;21.176;2024-02-14T07:49:46;9.94;67.67
76897;SHT30;65856;52.178;21.176;2024-02-14T07:52:12;10.11;67.30
76897;SHT30;65856;52.178;21.176;2024-02-14T07:54:37;10.28;67.15
76897;SHT30;65856;52.178;21.176;2024-02-14T07:57:03;10.46;66.65
76897;SHT30;65856;52.178;21.176;2024-02-14T07:59:28;10.60;65.97
76897;SHT30;65856;52.178;21.176;2024-02-14T08:01:54;10.66;65.25
76897;SHT30;65856;52.178;21.176;2024-02-14T08:04:19;10.76;65.16
76897;SHT30;65856;52.178;21.176;2024-02-14T08:06:45;10.94;64.85
76897;SHT30;65856;52.178;21.176;2024-02-14T08:09:12;11.12;64.54
76897;SHT30;65856;52.178;21.176;2024-02-14T08:11:37;11.29;63.93
76897;SHT30;65856;52.178;21.176;2024-02-14T08:14:03;11.41;63.77
76897;SHT30;65856;52.178;21.176;2024-02-14T08:16:28;11.56;63.34
76897;SHT30;65856;52.178;21.176;2024-02-14T08:18:54;11.67;62.47
76897;SHT30;65856;52.178;21.176;2024-02-14T08:21:26;11.80;62.47
76897;SHT30;65856;52.178;21.176;2024-02-14T08:23:52;11.97;62.07
76897;SHT30;65856;52.178;21.176;2024-02-14T08:26:19;12.08;61.32
76897;SHT30;65856;52.178;21.176;2024-02-14T08:28:47;12.23;61.34
76897;SHT30;65856;52.178;21.176;2024-02-14T08:31:14;12.38;60.88
76897;SHT30;65856;52.178;21.176;2024-02-14T08:33:39;12.50;60.65
76897;SHT30;65856;52.178;21.176;2024-02-14T08:36:05;12.65;60.09
76897;SHT30;65856;52.178;21.176;2024-02-14T08:38:31;12.76;59.79
76897;SHT30;65856;52.178;21.176;2024-02-14T08:40:58;12.85;59.54
76897;SHT30;65856;52.178;21.176;2024-02-14T08:43:23;12.88;58.75
76897;SHT30;65856;52.178;21.176;2024-02-14T08:45:53;12.89;58.60
76897;SHT30;65856;52.178;21.176;2024-02-14T08:48:22;12.98;58.95
76897;SHT30;65856;52.178;21.176;2024-02-14T08:50:48;13.10;58.52
76897;SHT30;65856;52.178;21.176;2024-02-14T08:53:13;13.19;58.18
76897;SHT30;65856;52.178;21.176;2024-02-14T08:55:39;13.30;57.62
76897;SHT30;65856;52.178;21.176;2024-02-14T08:58:05;13.35;57.12
76897;SHT30;65856;52.178;21.176;2024-02-14T09:00:31;13.41;57.16
76897;SHT30;65856;52.178;21.176;2024-02-14T09:03:00;13.52;57.21
76897;SHT30;65856;52.178;21.176;2024-02-14T09:05:25;13.58;56.43
76897;SHT30;65856;52.178;21.176;2024-02-14T09:07:53;13.59;56.77
76897;SHT30;65856;52.178;21.176;2024-02-14T09:10:18;13.67;56.32
76897;SHT30;65856;52.178;21.176;2024-02-14T09:12:44;13.74;56.52
76897;SHT30;65856;52.178;21.176;2024-02-14T09:15:10;13.83;55.60
76897;SHT30;65856;52.178;21.176;2024-02-14T09:17:36;13.90;55.73
76897;SHT30;65856;52.178;21.176;2024-02-14T09:20:04;13.92;55.09
76897;SHT30;65856;52.178;21.176;2024-02-14T09:22:34;13.98;55.11
76897;SHT30;65856;52.178;21.176;2024-02-14T09:25:03;13.93;54.41
76897;SHT30;65856;52.178;21.176;2024-02-14T09:27:29;13.85;54.56
76897;SHT30;65856;52.178;21.176;2024-02-14T09:29:59;13.73;53.71
76897;SHT30;65856;52.178;21.176;2024-02-14T09:32:24;13.56;53.46
76897;SHT30;65856;52.178;21.176;2024-02-14T09:34:50;13.49;54.13
76897;SHT30;65856;52.178;21.176;2024-02-14T09:37:15;13.54;54.72
76897;SHT30;65856;52.178;21.176;2024-02-14T09:39:41;13.62;54.78
76897;SHT30;65856;52.178;21.176;2024-02-14T09:42:09;13.62;53.98
76897;SHT30;65856;52.178;21.176;2024-02-14T09:44:38;13.59;54.01
76897;SHT30;65856;52.178;21.176;2024-02-14T09:47:05;13.53;53.59
76897;SHT30;65856;52.178;21.176;2024-02-14T09:49:31;13.48;53.27
76897;SHT30;65856;52.178;21.176;2024-02-14T09:52:01;13.36;52.95
76897;SHT30;65856;52.178;21.176;2024-02-14T09:54:31;13.24;53.11
76897;SHT30;65856;52.178;21.176;2024-02-14T09:56:59;13.16;53.38
76897;SHT30;65856;52.178;21.176;2024-02-14T09:59:26;13.15;53.50
76897;SHT30;65856;52.178;21.176;2024-02-14T10:01:51;13.14;53.21
76897;SHT30;65856;52.178;21.176;2024-02-14T10:04:17;13.13;53.14
76897;SHT30;65856;52.178;21.176;2024-02-14T10:06:44;13.14;52.89
76897;SHT30;65856;52.178;21.176;2024-02-14T10:09:10;13.12;52.69
76897;SHT30;65856;52.178;21.176;2024-02-14T10:11:37;13.15;52.16
76897;SHT30;65856;52.178;21.176;2024-02-14T10:14:04;13.15;51.66
76897;SHT30;65856;52.178;21.176;2024-02-14T10:16:34;13.09;51.31
76897;SHT30;65856;52.178;21.176;2024-02-14T10:19:00;13.05;51.47
76897;SHT30;65856;52.178;21.176;2024-02-14T10:21:26;12.98;51.05
76897;SHT30;65856;52.178;21.176;2024-02-14T10:23:53;12.93;50.98
76897;SHT30;65856;52.178;21.176;2024-02-14T10:26:22;12.93;51.31
76897;SHT30;65856;52.178;21.176;2024-02-14T10:28:47;12.94;51.16
76897;SHT30;65856;52.178;21.176;2024-02-14T10:31:13;12.90;50.61
76897;SHT30;65856;52.178;21.176;2024-02-14T10:33:39;12.79;50.36
76897;SHT30;65856;52.178;21.176;2024-02-14T10:36:07;12.75;51.26
76897;SHT30;65856;52.178;21.176;2024-02-14T10:38:34;12.76;51.25
76897;SHT30;65856;52.178;21.176;2024-02-14T10:41:00;12.74;51.32
76897;SHT30;65856;52.178;21.176;2024-02-14T10:43:30;12.67;50.74
76897;SHT30;65856;52.178;21.176;2024-02-14T10:45:58;12.56;51.33
76897;SHT30;65856;52.178;21.176;2024-02-14T10:48:25;12.54;50.82
76897;SHT30;65856;52.178;21.176;2024-02-14T10:50:54;12.45;51.09
76897;SHT30;65856;52.178;21.176;2024-02-14T10:53:22;12.45;51.60
76897;SHT30;65856;52.178;21.176;2024-02-14T10:55:49;12.34;51.35
76897;SHT30;65856;52.178;21.176;2024-02-14T10:58:16;12.30;51.87
76897;SHT30;65856;52.178;21.176;2024-02-14T11:00:43;12.33;51.90
76897;SHT30;65856;52.178;21.176;2024-02-14T11:03:09;12.35;51.50
76897;SHT30;65856;52.178;21.176;2024-02-14T11:05:45;12.32;51.18
76897;SHT30;65856;52.178;21.176;2024-02-14T11:08:14;12.27;51.57
76897;SHT30;65856;52.178;21.176;2024-02-14T11:10:51;12.22;51.31
76897;SHT30;65856;52.178;21.176;2024-02-14T11:13:19;12.21;51.12
76897;SHT30;65856;52.178;21.176;2024-02-14T11:15:45;12.24;51.24
76897;SHT30;65856;52.178;21.176;2024-02-14T11:18:12;12.32;51.35
76897;SHT30;65856;52.178;21.176;2024-02-14T11:20:37;12.33;50.50
76897;SHT30;65856;52.178;21.176;2024-02-14T11:23:06;12.27;50.67
76897;SHT30;65856;52.178;21.176;2024-02-14T11:25:36;12.27;51.00
76897;SHT30;65856;52.178;21.176;2024-02-14T11:28:12;12.22;50.87
76897;SHT30;65856;52.178;21.176;2024-02-14T11:30:40;12.18;50.27
76897;SHT30;65856;52.178;21.176;2024-02-14T11:33:13;12.04;50.08
76897;SHT30;65856;52.178;21.176;2024-02-14T11:35:43;11.98;50.36
76897;SHT30;65856;52.178;21.176;2024-02-14T11:38:10;11.90;50.69
76897;SHT30;65856;52.178;21.176;2024-02-14T11:40:36;11.85;50.77
76897;SHT30;65856;52.178;21.176;2024-02-14T11:43:18;11.84;50.42
76897;SHT30;65856;52.178;21.176;2024-02-14T11:45:45;11.75;50.16
76897;SHT30;65856;52.178;21.176;2024-02-14T11:48:14;11.71;50.84
76897;SHT30;65856;52.178;21.176;2024-02-14T11:50:42;11.72;51.16
76897;SHT30;65856;52.178;21.176;2024-02-14T11:53:10;11.73;51.43
76897;SHT30;65856;52.178;21.176;2024-02-14T11:55:41;11.72;51.26
76897;SHT30;65856;52.178;21.176;2024-02-14T12:00:39;11.65;51.29
76897;SHT30;65856;52.178;21.176;2024-02-14T12:03:07;11.65;50.58
76897;SHT30;65856;52.178;21.176;2024-02-14T12:05:36;11.64;50.60
76897;SHT30;65856;52.178;21.176;2024-02-14T12:08:02;11.62;50.79
76897;SHT30;65856;52.178;21.176;2024-02-14T12:10:31;11.62;51.21
76897;SHT30;65856;52.178;21.176;2024-02-14T12:12:57;11.62;51.42
76897;SHT30;65856;52.178;21.176;2024-02-14T12:15:25;11.60;51.69
76897;SHT30;65856;52.178;21.176;2024-02-14T12:17:54;11.59;51.89
76897;SHT30;65856;52.178;21.176;2024-02-14T12:20:21;11.56;51.63
76897;SHT30;65856;52.178;21.176;2024-02-14T12:22:51;11.53;51.85
76897;SHT30;65856;52.178;21.176;2024-02-14T12:25:17;11.53;52.20
76897;SHT30;65856;52.178;21.176;2024-02-14T12:27:42;11.52;52.14
76897;SHT30;65856;52.178;21.176;2024-02-14T12:30:16;11.50;52.16
76897;SHT30;65856;52.178;21.176;2024-02-14T12:32:42;11.46;52.03
76897;SHT30;65856;52.178;21.176;2024-02-14T12:35:08;11.39;52.06
76897;SHT30;65856;52.178;21.176;2024-02-14T12:37:34;11.32;51.23
76897;SHT30;65856;52.178;21.176;2024-02-14T12:39:59;11.24;51.40
76897;SHT30;65856;52.178;21.176;2024-02-14T12:42:25;11.23;51.60
76897;SHT30;65856;52.178;21.176;2024-02-14T12:44:54;11.23;51.90
76897;SHT30;65856;52.178;21.176;2024-02-14T12:47:19;11.21;52.12
76897;SHT30;65856;52.178;21.176;2024-02-14T12:49:46;11.20;51.91
76897;SHT30;65856;52.178;21.176;2024-02-14T12:52:13;11.15;51.78
76897;SHT30;65856;52.178;21.176;2024-02-14T12:54:39;11.11;51.66
76897;SHT30;65856;52.178;21.176;2024-02-14T12:57:04;11.10;51.90
76897;SHT30;65856;52.178;21.176;2024-02-14T12:59:30;11.07;51.87
76897;SHT30;65856;52.178;21.176;2024-02-14T13:01:56;11.06;52.02
76897;SHT30;65856;52.178;21.176;2024-02-14T13:04:21;11.03;51.93
76897;SHT30;65856;52.178;21.176;2024-02-14T13:06:47;11.02;51.31
76897;SHT30;65856;52.178;21.176;2024-02-14T13:09:13;10.93;51.14
76897;SHT30;65856;52.178;21.176;2024-02-14T13:11:39;10.86;51.47
76897;SHT30;65856;52.178;21.176;2024-02-14T13:14:06;10.81;50.72
76897;SHT30;65856;52.178;21.176;2024-02-14T13:16:31;10.72;50.81
76897;SHT30;65856;52.178;21.176;2024-02-14T13:18:57;10.65;50.65
76897;SHT30;65856;52.178;21.176;2024-02-14T13:21:22;10.59;51.09
76897;SHT30;65856;52.178;21.176;2024-02-14T13:23:48;10.57;51.58
76897;SHT30;65856;52.178;21.176;2024-02-14T13:26:13;10.57;51.76
76897;SHT30;65856;52.178;21.176;2024-02-14T13:28:39;10.55;51.88
76897;SHT30;65856;52.178;21.176;2024-02-14T13:31:05;10.55;52.41
76897;SHT30;65856;52.178;21.176;2024-02-14T13:33:31;10.53;52.22
76897;SHT30;65856;52.178;21.176;2024-02-14T13:35:56;10.52;52.48
76897;SHT30;65856;52.178;21.176;2024-02-14T13:38:22;10.52;52.41
76897;SHT30;65856;52.178;21.176;2024-02-14T13:40:48;10.52;52.24
76897;SHT30;65856;52.178;21.176;2024-02-14T13:43:13;10.50;51.85
76897;SHT30;65856;52.178;21.176;2024-02-14T13:45:42;10.44;51.84
76897;SHT30;65856;52.178;21.176;2024-02-14T13:48:10;10.43;52.42
76897;SHT30;65856;52.178;21.176;2024-02-14T13:50:36;10.43;52.78
76897;SHT30;65856;52.178;21.176;2024-02-14T13:53:03;10.43;52.44
76897;SHT30;65856;52.178;21.176;2024-02-14T13:55:29;10.44;52.55
76897;SHT30;65856;52.178;21.176;2024-02-14T13:57:54;10.45;52.68
76897;SHT30;65856;52.178;21.176;2024-02-14T14:00:20;10.45;52.66
76897;SHT30;65856;52.178;21.176;2024-02-14T14:02:45;10.45;52.11
76897;SHT30;65856;52.178;21.176;2024-02-14T14:05:11;10.44;52.04
76897;SHT30;65856;52.178;21.176;2024-02-14T14:07:40;10.43;51.91
76897;SHT30;65856;52.178;21.176;2024-02-14T14:10:08;10.41;51.67
76897;SHT30;65856;52.178;21.176;2024-02-14T14:12:34;10.38;51.76
76897;SHT30;65856;52.178;21.176;2024-02-14T14:15:00;10.35;51.86
76897;SHT30;65856;52.178;21.176;2024-02-14T14:17:26;10.33;51.62
76897;SHT30;65856;52.178;21.176;2024-02-14T14:19:52;10.30;52.16
76897;SHT30;65856;52.178;21.176;2024-02-14T14:22:19;10.28;51.93
76897;SHT30;65856;52.178;21.176;2024-02-14T14:24:44;10.25;52.03
76897;SHT30;65856;52.178;21.176;2024-02-14T14:27:10;10.21;51.64
76897;SHT30;65856;52.178;21.176;2024-02-14T14:29:39;10.19;52.50
76897;SHT30;65856;52.178;21.176;2024-02-14T14:32:08;10.19;52.89
76897;SHT30;65856;52.178;21.176;2024-02-14T14:34:34;10.18;52.38
76897;SHT30;65856;52.178;21.176;2024-02-14T14:36:59;10.12;51.91
76897;SHT30;65856;52.178;21.176;2024-02-14T14:39:26;10.03;51.50
76897;SHT30;65856;52.178;21.176;2024-02-14T14:41:52;9.95;51.80
76897;SHT30;65856;52.178;21.176;2024-02-14T14:44:21;9.89;51.59
76897;SHT30;65856;52.178;21.176;2024-02-14T14:46:46;9.83;51.68
76897;SHT30;65856;52.178;21.176;2024-02-14T14:49:12;9.78;51.68
76897;SHT30;65856;52.178;21.176;2024-02-14T14:51:37;9.74;52.23
76897;SHT30;65856;52.178;21.176;2024-02-14T14:54:03;9.71;52.14
76897;SHT30;65856;52.178;21.176;2024-02-14T14:56:30;9.68;52.46
76897;SHT30;65856;52.178;21.176;2024-02-14T14:58:56;9.65;52.69
76897;SHT30;65856;52.178;21.176;2024-02-14T15:01:24;9.63;52.78
76897;SHT30;65856;52.178;21.176;2024-02-14T15:03:52;9.58;53.04
76897;SHT30;65856;52.178;21.176;2024-02-14T15:06:18;9.53;52.86
76897;SHT30;65856;52.178;21.176;2024-02-14T15:08:44;9.47;52.88
76897;SHT30;65856;52.178;21.176;2024-02-14T15:11:10;9.43;52.96
76897;SHT30;65856;52.178;21.176;2024-02-14T15:13:40;9.39;53.11
76897;SHT30;65856;52.178;21.176;2024-02-14T15:16:06;9.35;53.18
76897;SHT30;65856;52.178;21.176;2024-02-14T15:18:33;9.32;53.33
76897;SHT30;65856;52.178;21.176;2024-02-14T15:20:59;9.31;53.54
76897;SHT30;65856;52.178;21.176;2024-02-14T15:23:25;9.28;53.61